Time;durP1;ratioP1;P1;durP2;ratioP2;P2;SDS_P1;SDS_P2;PMS_P1;PMS_P2;Temp;Humidity;BMP_temperature;BMP_pressure;BME280_temperature;BME280_humidity;BME280_pressure;Samples;Min_cycle;Max_cycle;Signal;HPM_P1;HPM_P2
2022/03/20 00:02:20;;;;;;;;;;;;;;;;;;5115011;28;20011;-76
2022/03/20 00:04:45;;;;;;;;;;;;;;;;;;5114900;28;19924;-76
2022/03/20 00:07:11;;;;;;;;;;;;;;;;;;5114572;28;19947;-76
2022/03/20 00:09:39;;;;;;;;;;;;;;;;;;5114891;28;19938;-76
2022/03/20 00:12:05;;;;;;;;;;;;;;;;;;5113771;28;19915;-76
2022/03/20 00:14:30;;;;;;;;;;;;;;;;;;5114711;28;19938;-75
2022/03/20 00:16:56;;;;;;;;;;;;;;;;;;5114754;28;19916;-75
2022/03/20 00:19:21;;;;;;;;;;;;;;;;;;5114591;28;20349;-76
2022/03/20 00:21:46;;;;;;;;;;;;;;;;;;5114243;28;19915;-76
2022/03/20 00:24:12;;;;;;;;;;;;;;;;;;5114326;28;19919;-76
2022/03/20 00:26:39;;;;;;;;;;;;;;;;;;5114315;28;20377;-75
2022/03/20 00:29:05;;;;;;;;;;;;;;;;;;5114145;28;19916;-75
2022/03/20 00:31:32;;;;;;;;;;;;;;;;;;5114096;28;19916;-75
2022/03/20 00:33:57;;;;;;;;;;;;;;;;;;5114263;28;19926;-75
2022/03/20 00:36:23;;;;;;;;;;;;;;;;;;5114160;28;19923;-76
2022/03/20 00:38:48;;;;;;;;;;;;;;;;;;5114490;28;19923;-75
2022/03/20 00:41:13;;;;;;;;;;;;;;;;;;5114084;28;19958;-75
2022/03/20 00:43:39;;;;;;;;;;;;;;;;;;5112114;28;19915;-75
2022/03/20 00:46:04;;;;;;;;;;;;;;;;;;5114258;28;19924;-75
2022/03/20 00:48:29;;;;;;;;;;;;;;;;;;5114357;28;19947;-75
2022/03/20 00:50:55;;;;;;;;;;;;;;;;;;5114354;28;19916;-76
2022/03/20 00:53:20;;;;;;;;;;;;;;;;;;5112824;28;19916;-76
2022/03/20 00:55:46;;;;;;;;;;;;;;;;;;5114121;28;20022;-76
2022/03/20 00:58:12;;;;;;;;;;;;;;;;;;5114328;28;19916;-76
2022/03/20 01:00:37;;;;;;;;;;;;;;;;;;5114065;28;19916;-76
2022/03/20 01:03:02;;;;;;;;;;;;;;;;;;5112668;28;19916;-75
2022/03/20 01:05:28;;;;;;;;;;;;;;;;;;5113854;28;19916;-76
2022/03/20 01:07:53;;;;;;;;;;;;;;;;;;5114194;28;19916;-76
2022/03/20 01:10:19;;;;;;;;;;;;;;;;;;5113821;28;20014;-76
2022/03/20 01:12:44;;;;;;;;;;;;;;;;;;5113870;28;20385;-76
2022/03/20 01:15:10;;;;;;;;;;;;;;;;;;5113695;28;19946;-76
2022/03/20 01:17:36;;;;;;;;;;;;;;;;;;5112564;28;19919;-77
2022/03/20 01:20:02;;;;;;;;;;;;;;;;;;5113852;28;19916;-76
2022/03/20 01:22:28;;;;;;;;;;;;;;;;;;5114104;28;20407;-76
2022/03/20 01:24:53;;;;;;;;;;;;;;;;;;5113706;28;19919;-76
2022/03/20 01:27:18;;;;;;;;;;;;;;;;;;5113117;28;19915;-76
2022/03/20 01:29:44;;;;;;;;;;;;;;;;;;5113972;28;19915;-76
2022/03/20 01:32:10;;;;;;;;;;;;;;;;;;5113357;28;19995;-76
2022/03/20 01:34:36;;;;;;;;;;;;;;;;;;5113719;28;20408;-76
2022/03/20 01:37:02;;;;;;;;;;;;;;;;;;5113215;28;19927;-76
2022/03/20 01:39:27;;;;;;;;;;;;;;;;;;5113542;28;20388;-76
2022/03/20 01:41:53;;;;;;;;;;;;;;;;;;5112271;28;19970;-76
2022/03/20 01:44:18;;;;;;;;;;;;;;;;;;5112890;28;19916;-76
2022/03/20 01:46:43;;;;;;;;;;;;;;;;;;5112587;28;19916;-76
2022/03/20 01:49:09;;;;;;;;;;;;;;;;;;5113551;28;19920;-76
2022/03/20 01:54:20;;;;;;;;;;;;;;;;;;5116897;28;19916;-76
2022/03/20 01:56:46;;;;;;;;;;;;;;;;;;5117044;28;19966;-76
2022/03/20 01:59:12;;;;;;;;;;;;;;;;;;5117518;27;20329;-76
2022/03/20 02:01:37;;;;;;;;;;;;;;;;;;5117364;28;19916;-76
2022/03/20 02:04:02;;;;;;;;;;;;;;;;;;5117290;28;19998;-76
2022/03/20 02:06:28;;;;;;;;;;;;;;;;;;5116986;28;19916;-76
2022/03/20 02:08:56;;;;;;;;;;;;;;;;;;5117016;28;19916;-76
2022/03/20 02:11:22;;;;;;;;;;;;;;;;;;5117016;28;20301;-76
2022/03/20 02:13:48;;;;;;;;;;;;;;;;;;5125537;27;19915;-75
2022/03/20 02:16:13;;;;;;;;;;;;;;;;;;5116914;28;19965;-75
2022/03/20 02:18:39;;;;;;;;;;;;;;;;;;5116925;28;19962;-76
2022/03/20 02:21:04;;;;;;;;;;;;;;;;;;5116739;27;19923;-76
2022/03/20 02:23:34;;;;;;;;;;;;;;;;;;5116893;28;20250;-76
2022/03/20 02:26:00;;;;;;;;;;;;;;;;;;5115644;28;19916;-75
2022/03/20 02:28:26;;;;;;;;;;;;;;;;;;5115816;28;19983;-76
2022/03/20 02:30:51;;;;;;;;;;;;;;;;;;5116519;28;20006;-75
2022/03/20 02:33:18;;;;;;;;;;;;;;;;;;5116591;28;19955;-75
2022/03/20 02:35:44;;;;;;;;;;;;;;;;;;5117213;28;20056;-76
2022/03/20 02:38:10;;;;;;;;;;;;;;;;;;5116621;28;19963;-76
2022/03/20 02:40:36;;;;;;;;;;;;;;;;;;5115716;28;20345;-76
2022/03/20 02:43:02;;;;;;;;;;;;;;;;;;5116517;28;19961;-75
2022/03/20 02:45:29;;;;;;;;;;;;;;;;;;5116503;27;19916;-76
2022/03/20 02:47:55;;;;;;;;;;;;;;;;;;5116522;28;19923;-76
2022/03/20 02:50:27;;;;;;;;;;;;;;;;;;5116256;27;20297;-76
2022/03/20 02:53:14;;;;;;;;;;;;;;;;;;5116264;28;19916;-76
2022/03/20 02:55:41;;;;;;;;;;;;;;;;;;5116112;28;19963;-75
2022/03/20 02:58:07;;;;;;;;;;;;;;;;;;5115033;28;19916;-76
2022/03/20 03:00:33;;;;;;;;;;;;;;;;;;5116167;28;19965;-76
2022/03/20 03:02:59;;;;;;;;;;;;;;;;;;5115978;28;19912;-76
2022/03/20 03:05:26;;;;;;;;;;;;;;;;;;5116055;28;19916;-76
2022/03/20 03:10:56;;;;;;;;;;;;;;;;;;5115999;28;19916;-76
2022/03/20 03:13:22;;;;;;;;;;;;;;;;;;5114623;28;19943;-76
2022/03/20 03:15:47;;;;;;;;;;;;;;;;;;5115647;28;19916;-76
2022/03/20 03:18:12;;;;;;;;;;;;;;;;;;5115692;28;19927;-76
2022/03/20 03:20:38;;;;;;;;;;;;;;;;;;5115924;28;19916;-76
2022/03/20 03:23:04;;;;;;;;;;;;;;;;;;5115770;28;19961;-76
2022/03/20 03:25:35;;;;;;;;;;;;;;;;;;5115585;28;19923;-76
2022/03/20 03:28:00;;;;;;;;;;;;;;;;;;5115512;28;19920;-76
2022/03/20 03:30:26;;;;;;;;;;;;;;;;;;5114379;28;19977;-75
2022/03/20 03:32:52;;;;;;;;;;;;;;;;;;5115035;28;19920;-76
2022/03/20 03:38:01;;;;;;;;;;;;;;;;;;5114111;28;19920;-76
2022/03/20 03:40:27;;;;;;;;;;;;;;;;;;5114558;28;19916;-76
2022/03/20 03:42:52;;;;;;;;;;;;;;;;;;5114956;28;19916;-76
2022/03/20 03:45:18;;;;;;;;;;;;;;;;;;5115248;27;19922;-76
2022/03/20 03:47:44;;;;;;;;;;;;;;;;;;5115354;28;19915;-76
2022/03/20 03:50:10;;;;;;;;;;;;;;;;;;5115138;28;19976;-76
2022/03/20 03:52:38;;;;;;;;;;;;;;;;;;5114624;28;19961;-76
2022/03/20 03:55:05;;;;;;;;;;;;;;;;;;5114836;28;19916;-77
2022/03/20 03:57:30;;;;;;;;;;;;;;;;;;5115015;28;19943;-76
2022/03/20 03:59:55;;;;;;;;;;;;;;;;;;5115109;28;20334;-76
2022/03/20 04:02:21;;;;;;;;;;;;;;;;;;5115179;28;20340;-76
2022/03/20 04:04:47;;;;;;;;;;;;;;;;;;5114965;28;19915;-76
2022/03/20 04:07:16;;;;;;;;;;;;;;;;;;5114868;28;19919;-76
2022/03/20 04:09:42;;;;;;;;;;;;;;;;;;5113378;28;19915;-76
2022/03/20 04:12:08;;;;;;;;;;;;;;;;;;5114008;27;19923;-76
2022/03/20 04:14:33;;;;;;;;;;;;;;;;;;5114335;28;19916;-76
2022/03/20 04:16:59;;;;;;;;;;;;;;;;;;5114928;28;19920;-76
2022/03/20 04:19:25;;;;;;;;;;;;;;;;;;5114910;28;19916;-76
2022/03/20 04:21:50;;;;;;;;;;;;;;;;;;5114698;27;20265;-76
2022/03/20 04:24:16;;;;;;;;;;;;;;;;;;5114218;27;19911;-76
2022/03/20 04:26:41;;;;;;;;;;;;;;;;;;5114510;28;20296;-76
2022/03/20 04:29:06;;;;;;;;;;;;;;;;;;5114403;28;19992;-76
2022/03/20 04:31:32;;;;;;;;;;;;;;;;;;5114287;28;20483;-76
2022/03/20 04:33:57;;;;;;;;;;;;;;;;;;5114256;28;19920;-76
2022/03/20 04:36:24;;;;;;;;;;;;;;;;;;5114403;28;19924;-76
2022/03/20 04:38:50;;;;;;;;;;;;;;;;;;5114501;28;19939;-76
2022/03/20 04:41:17;;;;;;;;;;;;;;;;;;5114017;28;19984;-76
2022/03/20 04:43:44;;;;;;;;;;;;;;;;;;5111413;28;20391;-76
2022/03/20 04:46:09;;;;;;;;;;;;;;;;;;5114501;28;19915;-76
2022/03/20 04:59:30;;;;;;;;;;;;;;;;;;5114067;28;19915;-76
2022/03/20 05:01:55;;;;;;;;;;;;;;;;;;5113911;28;19968;-76
2022/03/20 05:04:21;;;;;;;;;;;;;;;;;;5114075;28;19942;-76
2022/03/20 05:06:46;;;;;;;;;;;;;;;;;;5114073;28;19922;-76
2022/03/20 05:14:39;;;;;;;;;;;;;;;;;;5102582;28;19959;-76
2022/03/20 05:17:06;;;;;;;;;;;;;;;;;;5093593;28;19977;-76
2022/03/20 05:19:33;;;;;;;;;;;;;;;;;;5093703;28;19923;-76
2022/03/20 05:21:58;;;;;;;;;;;;;;;;;;5093749;28;19916;-76
2022/03/20 05:24:23;;;;;;;;;;;;;;;;;;5093411;28;20404;-76
2022/03/20 05:26:49;;;;;;;;;;;;;;;;;;5094867;28;19916;-78
2022/03/20 05:29:15;;;;;;;;;;;;;;;;;;5097425;28;19916;-76
2022/03/20 05:31:40;;;;;;;;;;;;;;;;;;5097194;28;19923;-76
2022/03/20 05:34:06;;;;;;;;;;;;;;;;;;5096126;28;19922;-76
2022/03/20 05:36:31;;;;;;;;;;;;;;;;;;5097306;28;19974;-76
2022/03/20 05:38:56;;;;;;;;;;;;;;;;;;5097158;28;19947;-76
2022/03/20 05:44:06;;;;;;;;;;;;;;;;;;5101516;28;20391;-76
2022/03/20 05:46:31;;;;;;;;;;;;;;;;;;5117618;28;19916;-76
2022/03/20 05:48:57;;;;;;;;;;;;;;;;;;5116068;28;19916;-76
2022/03/20 05:51:22;;;;;;;;;;;;;;;;;;5116061;28;19919;-76
2022/03/20 05:53:47;;;;;;;;;;;;;;;;;;5117019;28;19912;-76
2022/03/20 05:58:58;;;;;;;;;;;;;;;;;;5117498;28;19916;-76
2022/03/20 06:01:23;;;;;;;;;;;;;;;;;;5116560;28;19969;-76
2022/03/20 06:03:49;;;;;;;;;;;;;;;;;;5117273;28;20366;-76
2022/03/20 06:06:15;;;;;;;;;;;;;;;;;;5117191;28;19952;-77
2022/03/20 06:08:40;;;;;;;;;;;;;;;;;;5117132;28;20002;-76
2022/03/20 06:11:06;;;;;;;;;;;;;;;;;;5117145;28;19916;-76
2022/03/20 06:13:35;;;;;;;;;;;;;;;;;;5117198;28;19915;-76
2022/03/20 06:16:01;;;;;;;;;;;;;;;;;;5116889;28;19920;-76
2022/03/20 06:18:27;;;;;;;;;;;;;;;;;;5117080;28;20467;-76
2022/03/20 06:20:52;;;;;;;;;;;;;;;;;;5116936;28;19920;-76
2022/03/20 06:23:18;;;;;;;;;;;;;;;;;;5115522;28;19926;-78
2022/03/20 06:25:43;;;;;;;;;;;;;;;;;;5116011;28;19920;-76
2022/03/20 06:28:08;;;;;;;;;;;;;;;;;;5116828;28;19960;-75
2022/03/20 06:30:34;;;;;;;;;;;;;;;;;;5116856;28;19922;-75
2022/03/20 06:33:02;;;;;;;;;;;;;;;;;;5116539;28;20010;-75
2022/03/20 06:35:27;;;;;;;;;;;;;;;;;;5102958;28;19920;-74
2022/03/20 06:37:53;;;;;;;;;;;;;;;;;;5095940;28;19919;-74
2022/03/20 06:40:19;;;;;;;;;;;;;;;;;;5110932;28;20312;-75
2022/03/20 06:42:45;;;;;;;;;;;;;;;;;;5116456;28;19915;-75
2022/03/20 06:45:13;;;;;;;;;;;;;;;;;;5116454;28;20387;-75
2022/03/20 06:47:40;;;;;;;;;;;;;;;;;;5116306;27;20278;-75
2022/03/20 06:50:06;;;;;;;;;;;;;;;;;;5116427;28;19916;-75
2022/03/20 06:52:31;;;;;;;;;;;;;;;;;;5125760;27;19960;-77
2022/03/20 06:54:58;;;;;;;;;;;;;;;;;;5137036;27;20361;-77
2022/03/20 06:57:23;;;;;;;;;;;;;;;;;;5136743;27;20380;-77
2022/03/20 06:59:49;;;;;;;;;;;;;;;;;;5136860;27;20014;-76
2022/03/20 07:02:16;;;;;;;;;;;;;;;;;;5135517;27;19916;-77
2022/03/20 07:04:41;;;;;;;;;;;;;;;;;;5136587;27;19915;-77
2022/03/20 07:07:06;;;;;;;;;;;;;;;;;;5136736;27;19922;-77
2022/03/20 07:09:32;;;;;;;;;;;;;;;;;;5136444;27;19958;-77
2022/03/20 07:11:57;;;;;;;;;;;;;;;;;;5136627;27;20410;-80
2022/03/20 07:14:23;;;;;;;;;;;;;;;;;;5136979;27;20361;-75
2022/03/20 07:16:50;;;;;;;;;;;;;;;;;;5132409;27;19984;-75
2022/03/20 07:19:16;;;;;;;;;;;;;;;;;;5094165;28;20023;-78
2022/03/20 07:21:41;;;;;;;;;;;;;;;;;;5095260;28;19960;-77
2022/03/20 07:24:06;;;;;;;;;;;;;;;;;;5095619;28;19916;-77
2022/03/20 07:29:31;;;;;;;;;;;;;;;;;;5095300;28;19916;-77
2022/03/20 07:31:57;;;;;;;;;;;;;;;;;;5103911;28;19915;-76
2022/03/20 07:34:23;;;;;;;;;;;;;;;;;;5103092;28;19920;-78
2022/03/20 07:36:50;;;;;;;;;;;;;;;;;;5104414;28;19926;-79
2022/03/20 07:39:15;;;;;;;;;;;;;;;;;;5115551;28;19966;-77
2022/03/20 07:41:40;;;;;;;;;;;;;;;;;;5102524;28;20281;-77
2022/03/20 07:44:06;;;;;;;;;;;;;;;;;;5097405;28;20304;-77
2022/03/20 07:46:31;;;;;;;;;;;;;;;;;;5097237;28;20416;-78
2022/03/20 07:48:58;;;;;;;;;;;;;;;;;;5108465;28;19915;-77
2022/03/20 07:51:23;;;;;;;;;;;;;;;;;;5097864;28;19965;-77
2022/03/20 07:53:50;;;;;;;;;;;;;;;;;;5093709;28;19917;-77
2022/03/20 07:56:18;;;;;;;;;;;;;;;;;;5091766;28;19926;-79
2022/03/20 07:58:43;;;;;;;;;;;;;;;;;;5094262;28;19966;-77
2022/03/20 08:01:10;;;;;;;;;;;;;;;;;;5094251;28;19917;-77
2022/03/20 08:03:35;;;;;;;;;;;;;;;;;;5091758;28;19916;-77
2022/03/20 08:06:00;;;;;;;;;;;;;;;;;;5097923;28;19965;-77
2022/03/20 08:08:26;;;;;;;;;;;;;;;;;;5115105;28;19916;-77
2022/03/20 08:10:51;;;;;;;;;;;;;;;;;;5114860;28;20381;-77
2022/03/20 08:13:16;;;;;;;;;;;;;;;;;;5099203;28;19951;-77
2022/03/20 08:15:43;;;;;;;;;;;;;;;;;;5094102;28;19912;-77
2022/03/20 08:18:08;;;;;;;;;;;;;;;;;;5094557;28;20289;-76
2022/03/20 08:20:34;;;;;;;;;;;;;;;;;;5094487;28;19916;-77
2022/03/20 08:23:00;;;;;;;;;;;;;;;;;;5094267;28;19912;-77
2022/03/20 08:25:26;;;;;;;;;;;;;;;;;;5092997;28;20373;-77
2022/03/20 08:27:53;;;;;;;;;;;;;;;;;;5094294;28;20013;-77
2022/03/20 08:30:20;;;;;;;;;;;;;;;;;;5094200;28;19915;-76
2022/03/20 08:32:48;;;;;;;;;;;;;;;;;;5094093;28;20377;-77
2022/03/20 08:35:14;;;;;;;;;;;;;;;;;;5093936;28;19920;-77
2022/03/20 08:37:41;;;;;;;;;;;;;;;;;;5093875;28;19920;-76
2022/03/20 08:40:06;;;;;;;;;;;;;;;;;;5094107;28;19952;-77
2022/03/20 08:42:32;;;;;;;;;;;;;;;;;;5102578;28;20408;-76
2022/03/20 08:44:57;;;;;;;;;;;;;;;;;;5114348;28;19922;-76
2022/03/20 08:47:22;;;;;;;;;;;;;;;;;;5114339;28;19920;-77
2022/03/20 08:49:49;;;;;;;;;;;;;;;;;;5114576;28;20014;-77
2022/03/20 08:52:14;;;;;;;;;;;;;;;;;;5114183;28;20020;-78
2022/03/20 08:54:40;;;;;;;;;;;;;;;;;;5114102;28;20293;-78
2022/03/20 08:57:07;;;;;;;;;;;;;;;;;;5125051;28;19965;-78
2022/03/20 08:59:32;;;;;;;;;;;;;;;;;;5133399;28;19916;-77
2022/03/20 09:01:58;;;;;;;;;;;;;;;;;;5136970;27;19915;-77
2022/03/20 09:04:23;;;;;;;;;;;;;;;;;;5139125;27;19915;-76
2022/03/20 09:06:50;;;;;;;;;;;;;;;;;;5131044;27;19923;-76
2022/03/20 09:09:15;;;;;;;;;;;;;;;;;;5118504;27;19920;-76
2022/03/20 09:11:41;;;;;;;;;;;;;;;;;;5118284;28;19927;-79
2022/03/20 09:14:07;;;;;;;;;;;;;;;;;;5118923;28;19916;-80
2022/03/20 09:19:17;;;;;;;;;;;;;;;;;;5118821;28;19958;-77
2022/03/20 09:21:42;;;;;;;;;;;;;;;;;;5117138;28;19923;-75
2022/03/20 09:24:08;;;;;;;;;;;;;;;;;;5118366;28;20312;-77
2022/03/20 09:26:36;;;;;;;;;;;;;;;;;;5118911;28;19916;-78
2022/03/20 09:29:02;;;;;;;;;;;;;;;;;;5121454;28;20007;-78
2022/03/20 09:31:31;;;;;;;;;;;;;;;;;;5102489;28;19923;-78
2022/03/20 09:33:56;;;;;;;;;;;;;;;;;;5098038;28;20018;-78
2022/03/20 09:36:22;;;;;;;;;;;;;;;;;;5099357;28;20411;-79
2022/03/20 09:38:47;;;;;;;;;;;;;;;;;;5096823;28;19927;-77
2022/03/20 09:41:12;;;;;;;;;;;;;;;;;;5097348;28;19920;-77
2022/03/20 09:43:39;;;;;;;;;;;;;;;;;;5105077;28;19916;-77
2022/03/20 09:46:05;;;;;;;;;;;;;;;;;;5117677;28;19916;-77
2022/03/20 09:48:31;;;;;;;;;;;;;;;;;;5116405;28;19923;-77
2022/03/20 09:51:00;;;;;;;;;;;;;;;;;;5117630;28;19915;-77
2022/03/20 09:53:25;;;;;;;;;;;;;;;;;;5117631;28;19962;-77
2022/03/20 09:55:54;;;;;;;;;;;;;;;;;;5116802;28;19966;-75
2022/03/20 09:58:23;;;;;;;;;;;;;;;;;;5117842;27;19958;-76
2022/03/20 10:00:48;;;;;;;;;;;;;;;;;;5116293;28;20023;-75
2022/03/20 10:03:17;;;;;;;;;;;;;;;;;;5104510;28;19963;-76
2022/03/20 10:05:45;;;;;;;;;;;;;;;;;;5107105;28;20003;-75
2022/03/20 10:08:17;;;;;;;;;;;;;;;;;;5104772;28;19970;-77
2022/03/20 10:10:42;;;;;;;;;;;;;;;;;;5096734;28;20021;-74
2022/03/20 10:13:12;;;;;;;;;;;;;;;;;;5095946;28;20277;-75
2022/03/20 10:15:39;;;;;;;;;;;;;;;;;;5096644;28;19923;-74
2022/03/20 10:18:16;;;;;;;;;;;;;;;;;;5096824;28;19916;-74
2022/03/20 10:20:46;;;;;;;;;;;;;;;;;;5096339;28;19920;-74
2022/03/20 10:23:30;;;;;;;;;;;;;;;;;;5096505;28;20320;-73
2022/03/20 10:25:55;;;;;;;;;;;;;;;;;;5110617;28;20006;-75
2022/03/20 10:28:21;;;;;;;;;;;;;;;;;;5117298;28;20373;-75
2022/03/20 10:31:00;;;;;;;;;;;;;;;;;;5116912;28;19922;-75
2022/03/20 10:33:25;;;;;;;;;;;;;;;;;;5116718;28;19920;-74
2022/03/20 10:36:09;;;;;;;;;;;;;;;;;;5116766;28;19916;-74
2022/03/20 10:38:36;;;;;;;;;;;;;;;;;;5116898;28;19915;-75
2022/03/20 10:41:01;;;;;;;;;;;;;;;;;;5116538;28;20369;-74
2022/03/20 10:43:26;;;;;;;;;;;;;;;;;;5116030;28;19918;-74
2022/03/20 10:45:54;;;;;;;;;;;;;;;;;;5116729;27;20377;-74
2022/03/20 10:48:25;;;;;;;;;;;;;;;;;;5116537;28;20373;-74
2022/03/20 10:50:51;;;;;;;;;;;;;;;;;;5116902;28;19915;-73
2022/03/20 10:53:17;;;;;;;;;;;;;;;;;;5116443;28;19960;-73
2022/03/20 10:55:42;;;;;;;;;;;;;;;;;;5115255;28;19922;-75
2022/03/20 10:58:20;;;;;;;;;;;;;;;;;;5116600;28;19916;-74
2022/03/20 11:00:46;;;;;;;;;;;;;;;;;;5116406;28;19916;-75
2022/03/20 11:03:15;;;;;;;;;;;;;;;;;;5116310;28;19916;-75
2022/03/20 11:05:40;;;;;;;;;;;;;;;;;;5116083;28;19916;-77
2022/03/20 11:08:05;;;;;;;;;;;;;;;;;;5116172;28;19916;-77
2022/03/20 11:10:31;;;;;;;;;;;;;;;;;;5116147;28;19916;-75
2022/03/20 11:12:57;;;;;;;;;;;;;;;;;;5116135;28;19922;-74
2022/03/20 11:15:22;;;;;;;;;;;;;;;;;;5113581;28;20314;-74
2022/03/20 11:17:49;;;;;;;;;;;;;;;;;;5116088;28;19926;-74
2022/03/20 11:20:15;;;;;;;;;;;;;;;;;;5116124;28;20014;-74
2022/03/20 11:22:48;;;;;;;;;;;;;;;;;;5115808;27;19915;-74
2022/03/20 11:25:17;;;;;;;;;;;;;;;;;;5116024;28;19920;-75
2022/03/20 11:27:45;;;;;;;;;;;;;;;;;;5115182;28;19961;-77
2022/03/20 11:30:13;;;;;;;;;;;;;;;;;;5114884;28;20410;-76
2022/03/20 11:32:39;;;;;;;;;;;;;;;;;;5115079;28;19926;-76
2022/03/20 11:35:06;;;;;;;;;;;;;;;;;;5115778;28;20006;-76
2022/03/20 11:37:41;;;;;;;;;;;;;;;;;;5115609;28;19926;-74
2022/03/20 11:40:09;;;;;;;;;;;;;;;;;;5109246;28;20377;-74
2022/03/20 11:42:35;;;;;;;;;;;;;;;;;;5104854;28;19999;-73
2022/03/20 11:45:00;;;;;;;;;;;;;;;;;;5115561;28;19985;-73
2022/03/20 11:47:32;;;;;;;;;;;;;;;;;;5115506;28;19916;-75
2022/03/20 11:50:06;;;;;;;;;;;;;;;;;;5114033;28;20366;-75
2022/03/20 11:52:50;;;;;;;;;;;;;;;;;;5114307;28;20234;-75
2022/03/20 11:55:30;;;;;;;;;;;;;;;;;;5115037;28;20434;-73
2022/03/20 11:58:16;;;;;;;;;;;;;;;;;;5115156;28;19919;-74
2022/03/20 12:00:43;;;;;;;;;;;;;;;;;;5103757;28;20415;-74
2022/03/20 12:03:15;;;;;;;;;;;;;;;;;;5115086;28;19923;-74
2022/03/20 12:05:56;;;;;;;;;;;;;;;;;;5114888;28;19916;-75
2022/03/20 12:08:21;;;;;;;;;;;;;;;;;;5114976;28;20365;-75
2022/03/20 12:10:55;;;;;;;;;;;;;;;;;;5114846;28;20009;-75
2022/03/20 12:13:36;;;;;;;;;;;;;;;;;;5114806;28;19919;-75
2022/03/20 12:16:03;;;;;;;;;;;;;;;;;;5114837;28;19920;-75
2022/03/20 12:18:28;;;;;;;;;;;;;;;;;;5114782;28;19916;-75
2022/03/20 12:21:00;;;;;;;;;;;;;;;;;;5114596;28;20002;-74
2022/03/20 12:23:44;;;;;;;;;;;;;;;;;;5114047;28;19915;-74
2022/03/20 12:26:48;;;;;;;;;;;;;;;;;;5114696;28;19916;-74
2022/03/20 12:29:38;;;;;;;;;;;;;;;;;;5071731;28;19920;-74
2022/03/20 12:32:11;;;;;;;;;;;;;;;;;;5112803;27;20023;-74
2022/03/20 12:34:36;;;;;;;;;;;;;;;;;;5114312;28;19916;-74
2022/03/20 12:37:21;;;;;;;;;;;;;;;;;;5113900;28;20407;-74
2022/03/20 12:39:46;;;;;;;;;;;;;;;;;;5112519;28;20456;-74
2022/03/20 12:42:16;;;;;;;;;;;;;;;;;;5113299;28;20346;-74
2022/03/20 12:44:48;;;;;;;;;;;;;;;;;;5114069;28;19916;-74
2022/03/20 12:47:18;;;;;;;;;;;;;;;;;;5114230;28;19919;-74
2022/03/20 12:49:45;;;;;;;;;;;;;;;;;;5114349;28;19920;-74
2022/03/20 12:52:11;;;;;;;;;;;;;;;;;;5114126;28;19969;-74
2022/03/20 12:54:36;;;;;;;;;;;;;;;;;;5113941;28;19936;-74
2022/03/20 12:57:04;;;;;;;;;;;;;;;;;;5114185;28;20345;-74
2022/03/20 12:59:29;;;;;;;;;;;;;;;;;;5114283;28;20373;-74
2022/03/20 13:01:55;;;;;;;;;;;;;;;;;;5114160;28;19916;-74
2022/03/20 13:04:21;;;;;;;;;;;;;;;;;;5114168;28;20373;-74
2022/03/20 13:06:47;;;;;;;;;;;;;;;;;;5112730;28;19916;-74
2022/03/20 13:09:13;;;;;;;;;;;;;;;;;;5113957;28;19922;-74
2022/03/20 13:11:56;;;;;;;;;;;;;;;;;;5113974;28;19919;-74
2022/03/20 13:14:23;;;;;;;;;;;;;;;;;;5112014;28;19947;-74
2022/03/20 13:16:53;;;;;;;;;;;;;;;;;;5112860;28;19965;-74
2022/03/20 13:19:25;;;;;;;;;;;;;;;;;;5113852;28;20433;-74
2022/03/20 13:21:51;;;;;;;;;;;;;;;;;;5112655;28;20381;-74
2022/03/20 13:24:26;;;;;;;;;;;;;;;;;;5113991;28;19916;-74
2022/03/20 13:26:59;;;;;;;;;;;;;;;;;;5112970;28;19916;-74
2022/03/20 13:29:24;;;;;;;;;;;;;;;;;;5112768;28;19915;-74
2022/03/20 13:32:04;;;;;;;;;;;;;;;;;;5113713;28;19922;-74
2022/03/20 13:34:30;;;;;;;;;;;;;;;;;;5112461;28;19925;-74
2022/03/20 13:37:02;;;;;;;;;;;;;;;;;;5112630;28;19942;-74
2022/03/20 13:39:27;;;;;;;;;;;;;;;;;;5113897;28;20014;-74
2022/03/20 13:41:53;;;;;;;;;;;;;;;;;;5112617;28;20006;-74
2022/03/20 13:44:18;;;;;;;;;;;;;;;;;;5113448;28;19915;-74
2022/03/20 13:46:44;;;;;;;;;;;;;;;;;;5112821;28;19923;-74
2022/03/20 13:49:13;;;;;;;;;;;;;;;;;;5117257;28;19976;-74
2022/03/20 13:51:40;;;;;;;;;;;;;;;;;;5115580;28;19916;-74
2022/03/20 13:54:13;;;;;;;;;;;;;;;;;;5117611;28;20289;-74
2022/03/20 13:56:38;;;;;;;;;;;;;;;;;;5115937;28;19920;-74
2022/03/20 13:59:07;;;;;;;;;;;;;;;;;;5116304;28;19926;-74
2022/03/20 14:01:45;;;;;;;;;;;;;;;;;;5117229;27;19915;-74
2022/03/20 14:04:14;;;;;;;;;;;;;;;;;;5117196;28;20380;-74
2022/03/20 14:06:40;;;;;;;;;;;;;;;;;;5117358;28;19915;-74
2022/03/20 14:09:07;;;;;;;;;;;;;;;;;;5117298;28;19919;-74
2022/03/20 14:11:34;;;;;;;;;;;;;;;;;;5117049;28;19923;-74
2022/03/20 14:14:00;;;;;;;;;;;;;;;;;;5116949;28;20288;-74
2022/03/20 14:16:34;;;;;;;;;;;;;;;;;;5115821;28;19924;-74
2022/03/20 14:19:07;;;;;;;;;;;;;;;;;;5115667;28;19976;-74
2022/03/20 14:21:32;;;;;;;;;;;;;;;;;;5116956;28;20311;-74
2022/03/20 14:24:02;;;;;;;;;;;;;;;;;;5116624;27;19915;-73
2022/03/20 14:26:31;;;;;;;;;;;;;;;;;;5116673;27;19939;-74
2022/03/20 14:29:00;;;;;;;;;;;;;;;;;;5116704;28;19916;-74
2022/03/20 14:39:49;;;;;;;;;;;;;;;;;;5116589;28;19916;-74
2022/03/20 14:42:24;;;;;;;;;;;;;;;;;;5114514;28;20009;-73
2022/03/20 14:44:50;;;;;;;;;;;;;;;;;;5116383;28;19916;-74
2022/03/20 14:47:17;;;;;;;;;;;;;;;;;;5116395;28;19915;-74
2022/03/20 14:49:42;;;;;;;;;;;;;;;;;;5116433;28;19984;-73
2022/03/20 14:52:09;;;;;;;;;;;;;;;;;;5116439;28;19915;-74
2022/03/20 14:54:34;;;;;;;;;;;;;;;;;;5116308;28;20383;-73
2022/03/20 14:57:00;;;;;;;;;;;;;;;;;;5115552;28;19919;-73
2022/03/20 14:59:25;;;;;;;;;;;;;;;;;;5106503;28;19922;-73
2022/03/20 15:01:51;;;;;;;;;;;;;;;;;;5106068;28;19916;-74
2022/03/20 15:04:17;;;;;;;;;;;;;;;;;;5105810;28;20062;-73
2022/03/20 15:06:44;;;;;;;;;;;;;;;;;;5104443;28;20393;-73
2022/03/20 15:11:55;;;;;;;;;;;;;;;;;;5104989;28;19916;-73
2022/03/20 15:14:21;;;;;;;;;;;;;;;;;;5094288;28;19972;-74
2022/03/20 15:16:47;;;;;;;;;;;;;;;;;;5106229;28;20011;-74
2022/03/20 15:19:13;;;;;;;;;;;;;;;;;;5104754;28;19974;-74
2022/03/20 15:21:38;;;;;;;;;;;;;;;;;;5104603;28;19940;-73
2022/03/20 15:24:04;;;;;;;;;;;;;;;;;;5104814;28;19920;-73
2022/03/20 15:26:30;;;;;;;;;;;;;;;;;;5101985;28;20285;-74
2022/03/20 15:28:56;;;;;;;;;;;;;;;;;;5104893;28;19916;-74
2022/03/20 15:31:24;;;;;;;;;;;;;;;;;;5104057;27;19916;-73
2022/03/20 15:33:50;;;;;;;;;;;;;;;;;;5115276;28;19924;-74
2022/03/20 15:36:22;;;;;;;;;;;;;;;;;;5114258;28;19924;-74
2022/03/20 15:38:48;;;;;;;;;;;;;;;;;;5115584;28;20387;-73
2022/03/20 15:41:15;;;;;;;;;;;;;;;;;;5115459;28;20034;-74
2022/03/20 15:43:41;;;;;;;;;;;;;;;;;;5114597;28;19916;-74
2022/03/20 15:46:06;;;;;;;;;;;;;;;;;;5115376;28;19923;-74
2022/03/20 15:48:32;;;;;;;;;;;;;;;;;;5115304;28;19916;-74
2022/03/20 15:50:57;;;;;;;;;;;;;;;;;;5115294;28;19916;-74
2022/03/20 15:53:23;;;;;;;;;;;;;;;;;;5115232;27;19919;-74
2022/03/20 15:55:50;;;;;;;;;;;;;;;;;;5114643;28;20668;-74
2022/03/20 15:58:15;;;;;;;;;;;;;;;;;;5107115;28;20286;-73
2022/03/20 16:00:41;;;;;;;;;;;;;;;;;;5094433;28;19919;-74
2022/03/20 16:03:06;;;;;;;;;;;;;;;;;;5094670;28;20069;-74
2022/03/20 16:05:32;;;;;;;;;;;;;;;;;;5114798;28;19915;-74
2022/03/20 16:07:58;;;;;;;;;;;;;;;;;;5114636;28;19923;-74
2022/03/20 16:10:23;;;;;;;;;;;;;;;;;;5114045;28;20016;-75
2022/03/20 16:12:49;;;;;;;;;;;;;;;;;;5124975;27;19916;-74
2022/03/20 16:15:14;;;;;;;;;;;;;;;;;;5116981;27;19959;-74
2022/03/20 16:17:40;;;;;;;;;;;;;;;;;;5114519;28;19964;-74
2022/03/20 16:20:06;;;;;;;;;;;;;;;;;;5114621;28;20010;-74
2022/03/20 16:28:29;;;;;;;;;;;;;;;;;;5114619;27;19915;-74
2022/03/20 16:30:45;;;;;;;;;;;;;;;;;;5114685;28;19916;-74
2022/03/20 16:33:10;;;;;;;;;;;;;;;;;;5113570;28;19920;-74
2022/03/20 16:35:35;;;;;;;;;;;;;;;;;;5114438;28;20389;-74
2022/03/20 16:38:01;;;;;;;;;;;;;;;;;;5114282;28;20343;-74
2022/03/20 16:40:26;;;;;;;;;;;;;;;;;;5113323;28;19916;-74
2022/03/20 16:42:52;;;;;;;;;;;;;;;;;;5114262;28;19916;-74
2022/03/20 16:45:18;;;;;;;;;;;;;;;;;;5114214;28;19915;-74
2022/03/20 16:47:43;;;;;;;;;;;;;;;;;;5114297;28;19959;-74
2022/03/20 16:50:11;;;;;;;;;;;;;;;;;;5114282;28;20396;-74
2022/03/20 16:52:36;;;;;;;;;;;;;;;;;;5114275;28;20374;-74
2022/03/20 16:55:01;;;;;;;;;;;;;;;;;;5114112;28;19961;-74
2022/03/20 16:57:27;;;;;;;;;;;;;;;;;;5114062;28;19919;-74
2022/03/20 16:59:52;;;;;;;;;;;;;;;;;;5114189;28;20395;-74
2022/03/20 17:02:17;;;;;;;;;;;;;;;;;;5113115;28;20369;-74
2022/03/20 17:04:43;;;;;;;;;;;;;;;;;;5113538;28;19923;-74
2022/03/20 17:07:08;;;;;;;;;;;;;;;;;;5113740;28;20005;-75
2022/03/20 17:09:35;;;;;;;;;;;;;;;;;;5113966;28;19985;-75
2022/03/20 17:12:00;;;;;;;;;;;;;;;;;;5113976;28;19916;-75
2022/03/20 17:14:26;;;;;;;;;;;;;;;;;;5113527;28;19949;-75
2022/03/20 17:16:51;;;;;;;;;;;;;;;;;;5113771;28;19965;-75
2022/03/20 17:19:16;;;;;;;;;;;;;;;;;;5112680;28;19942;-75
2022/03/20 17:21:42;;;;;;;;;;;;;;;;;;5113760;28;20441;-75
2022/03/20 17:24:10;;;;;;;;;;;;;;;;;;5117952;28;19969;-75
2022/03/20 17:26:36;;;;;;;;;;;;;;;;;;5116995;28;19949;-75
2022/03/20 17:29:01;;;;;;;;;;;;;;;;;;5117761;28;19915;-75
2022/03/20 17:31:26;;;;;;;;;;;;;;;;;;5117900;28;19970;-75
2022/03/20 17:33:52;;;;;;;;;;;;;;;;;;5117178;28;20019;-75
2022/03/20 17:36:17;;;;;;;;;;;;;;;;;;5117655;28;19989;-75
2022/03/20 17:38:43;;;;;;;;;;;;;;;;;;5117571;28;19923;-74